Time;durP1;ratioP1;P1;durP2;ratioP2;P2;SDS_P1;SDS_P2;PMS_P1;PMS_P2;Temp;Humidity;BMP_temperature;BMP_pressure;BME280_temperature;BME280_humidity;BME280_pressure;Samples;Min_cycle;Max_cycle;Signal;HPM_P1;HPM_P2
2023/06/18 00:00:17;;;;;;;;;;;16.60;80.20;;;;;;5013127;28;87616;-48
2023/06/18 00:02:43;;;;;;;;;;;16.60;80.20;;;;;;5014685;28;87374;-51
2023/06/18 00:05:08;;;;;;;;;;;16.50;80.20;;;;;;5009682;28;88051;-50
2023/06/18 00:07:34;;;;;;;;;;;16.60;80.30;;;;;;5012279;28;87140;-49
2023/06/18 00:10:02;;;;;;;;;;;16.50;80.30;;;;;;5011141;28;88112;-49
2023/06/18 00:12:28;;;;;;;;;;;16.50;80.20;;;;;;5013360;28;89637;-48
2023/06/18 00:14:54;;;;;;;;;;;16.50;80.30;;;;;;5015283;28;87649;-49
2023/06/18 00:17:20;;;;;;;;;;;16.50;80.30;;;;;;5011298;28;87109;-50
2023/06/18 00:19:45;;;;;;;;;;;16.50;80.20;;;;;;5010429;28;87959;-50
2023/06/18 00:22:14;;;;;;;;;;;16.60;80.10;;;;;;5013346;28;87714;-50
2023/06/18 00:24:40;;;;;;;;;;;16.50;80.20;;;;;;5013358;28;89317;-47
2023/06/18 00:27:05;;;;;;;;;;;16.50;80.20;;;;;;5008034;28;86306;-50
2023/06/18 00:29:31;;;;;;;;;;;16.50;80.30;;;;;;5012781;28;86954;-51
2023/06/18 00:31:56;;;;;;;;;;;16.50;80.40;;;;;;5013495;28;88098;-48
2023/06/18 00:34:32;;;;;;;;;;;16.50;80.30;;;;;;5009325;28;88071;-49
2023/06/18 00:37:02;;;;;;;;;;;16.50;80.30;;;;;;5015922;28;88791;-51
2023/06/18 00:39:28;;;;;;;;;;;16.50;80.30;;;;;;5007876;28;87123;-47
2023/06/18 00:41:54;;;;;;;;;;;16.50;80.30;;;;;;5012122;28;87467;-50
2023/06/18 00:44:23;;;;;;;;;;;16.50;80.40;;;;;;5013619;28;87982;-47
2023/06/18 00:46:49;;;;;;;;;;;16.50;80.40;;;;;;5011678;28;87119;-46
2023/06/18 00:49:15;;;;;;;;;;;16.50;80.40;;;;;;5011042;28;89269;-48
2023/06/18 00:51:44;;;;;;;;;;;16.40;80.40;;;;;;5011112;28;86761;-48
2023/06/18 00:54:13;;;;;;;;;;;16.50;80.30;;;;;;5012402;28;87174;-48
2023/06/18 00:56:39;;;;;;;;;;;16.50;80.30;;;;;;5013266;28;87138;-51
2023/06/18 00:59:05;;;;;;;;;;;16.50;80.40;;;;;;5012881;28;89116;-49
2023/06/18 01:01:36;;;;;;;;;;;16.40;80.40;;;;;;5011619;28;89851;-47
2023/06/18 01:04:04;;;;;;;;;;;16.40;80.40;;;;;;5010593;28;89896;-49
2023/06/18 01:06:34;;;;;;;;;;;16.40;80.40;;;;;;5011225;28;87119;-52
2023/06/18 01:09:01;;;;;;;;;;;16.40;80.50;;;;;;5012520;28;87981;-46
2023/06/18 01:11:29;;;;;;;;;;;16.40;81.00;;;;;;5010466;28;88063;-49
2023/06/18 01:13:54;;;;;;;;;;;16.40;80.40;;;;;;5010199;28;87175;-48
2023/06/18 01:16:23;;;;;;;;;;;16.40;80.30;;;;;;5013125;28;87608;-49
2023/06/18 01:18:50;;;;;;;;;;;16.40;80.30;;;;;;5010388;28;88103;-47
2023/06/18 01:21:18;;;;;;;;;;;16.40;80.30;;;;;;5014517;28;87427;-49
2023/06/18 01:23:49;;;;;;;;;;;16.40;80.30;;;;;;5005686;28;89080;-49
2023/06/18 01:26:21;;;;;;;;;;;16.40;80.40;;;;;;5010307;28;87056;-48
2023/06/18 01:28:53;;;;;;;;;;;16.40;80.40;;;;;;5006661;28;89135;-48
2023/06/18 01:31:21;;;;;;;;;;;16.40;80.20;;;;;;5009442;28;88408;-49
2023/06/18 01:33:51;;;;;;;;;;;16.40;80.30;;;;;;5006076;28;87197;-47
2023/06/18 01:36:37;;;;;;;;;;;16.40;80.30;;;;;;5005170;28;88895;-47
2023/06/18 01:39:18;;;;;;;;;;;16.40;80.40;;;;;;5007761;28;89587;-49
2023/06/18 01:41:45;;;;;;;;;;;16.40;80.50;;;;;;5010313;28;86267;-53
2023/06/18 01:44:13;;;;;;;;;;;16.40;80.40;;;;;;5012909;28;86982;-52
2023/06/18 01:46:40;;;;;;;;;;;16.40;80.50;;;;;;5012699;28;87147;-50
2023/06/18 01:49:07;;;;;;;;;;;16.40;80.40;;;;;;5014786;28;89141;-47
2023/06/18 01:51:35;;;;;;;;;;;16.30;80.30;;;;;;5012670;28;89714;-52
2023/06/18 01:54:01;;;;;;;;;;;16.40;80.20;;;;;;5014724;28;87030;-47
2023/06/18 01:56:30;;;;;;;;;;;16.40;80.30;;;;;;5015038;28;89005;-47
2023/06/18 01:58:55;;;;;;;;;;;16.40;80.30;;;;;;5013987;28;87919;-51
2023/06/18 02:01:21;;;;;;;;;;;16.40;80.40;;;;;;5014657;28;87188;-48
2023/06/18 02:03:47;;;;;;;;;;;16.40;80.20;;;;;;5019071;28;87275;-50
2023/06/18 02:06:13;;;;;;;;;;;16.30;80.40;;;;;;5012549;28;86355;-51
2023/06/18 02:08:38;;;;;;;;;;;16.30;80.50;;;;;;5015435;28;86994;-51
2023/06/18 02:11:04;;;;;;;;;;;16.30;80.40;;;;;;5013124;28;88028;-47
2023/06/18 02:13:30;;;;;;;;;;;16.30;80.30;;;;;;5015587;28;88101;-47
2023/06/18 02:15:55;;;;;;;;;;;16.40;80.40;;;;;;5015250;28;88592;-48
2023/06/18 02:18:21;;;;;;;;;;;16.40;80.20;;;;;;5013167;28;88027;-47
2023/06/18 02:20:46;;;;;;;;;;;16.40;80.30;;;;;;5010252;28;87172;-49
2023/06/18 02:23:12;;;;;;;;;;;16.40;80.20;;;;;;5014789;28;87494;-52
2023/06/18 02:25:37;;;;;;;;;;;16.30;80.40;;;;;;5014753;28;88168;-50
2023/06/18 02:28:03;;;;;;;;;;;16.30;80.30;;;;;;5016176;28;87089;-49
2023/06/18 02:30:29;;;;;;;;;;;16.40;80.40;;;;;;5014612;28;87382;-48
2023/06/18 02:32:55;;;;;;;;;;;16.30;80.30;;;;;;5013451;28;87131;-48
2023/06/18 02:35:21;;;;;;;;;;;16.30;80.30;;;;;;5015341;28;87203;-48
2023/06/18 02:37:46;;;;;;;;;;;16.30;80.40;;;;;;5013226;28;89201;-47
2023/06/18 02:40:14;;;;;;;;;;;16.30;80.50;;;;;;5013388;28;87044;-49
2023/06/18 02:42:47;;;;;;;;;;;16.30;80.30;;;;;;5015524;28;89085;-52
2023/06/18 02:45:13;;;;;;;;;;;16.30;80.20;;;;;;5015049;28;87320;-47
2023/06/18 02:47:38;;;;;;;;;;;16.30;80.30;;;;;;5015715;28;87161;-50
2023/06/18 02:50:05;;;;;;;;;;;16.30;80.20;;;;;;5013079;28;88203;-49
2023/06/18 02:52:30;;;;;;;;;;;16.30;80.40;;;;;;5013597;28;87070;-47
2023/06/18 02:54:56;;;;;;;;;;;16.20;80.40;;;;;;5015900;28;88128;-52
2023/06/18 02:57:21;;;;;;;;;;;16.30;80.40;;;;;;5012810;28;88024;-51
2023/06/18 02:59:47;;;;;;;;;;;16.30;80.50;;;;;;5013900;28;87112;-49
2023/06/18 03:02:13;;;;;;;;;;;16.30;80.50;;;;;;5014684;28;87972;-49
2023/06/18 03:04:39;;;;;;;;;;;16.20;80.40;;;;;;5012465;28;88884;-47
2023/06/18 03:07:05;;;;;;;;;;;16.30;80.30;;;;;;5012764;28;87089;-48
2023/06/18 03:09:31;;;;;;;;;;;16.30;80.30;;;;;;5015049;28;88465;-47
2023/06/18 03:11:56;;;;;;;;;;;16.20;80.30;;;;;;5014943;28;87169;-46
2023/06/18 03:14:24;;;;;;;;;;;16.30;80.30;;;;;;5014308;28;87131;-47
2023/06/18 03:16:50;;;;;;;;;;;16.30;80.30;;;;;;5012247;28;88030;-47
2023/06/18 03:19:15;;;;;;;;;;;16.20;80.20;;;;;;5015228;28;86685;-48
2023/06/18 03:21:41;;;;;;;;;;;16.30;80.20;;;;;;5013195;28;87189;-47
2023/06/18 03:24:06;;;;;;;;;;;16.30;80.30;;;;;;5014787;28;88138;-50
2023/06/18 03:26:36;;;;;;;;;;;16.20;80.30;;;;;;5012085;28;88669;-47
2023/06/18 03:29:04;;;;;;;;;;;16.20;80.20;;;;;;5013022;28;89855;-51
2023/06/18 03:31:32;;;;;;;;;;;16.30;80.30;;;;;;5017616;28;90335;-49
2023/06/18 03:34:01;;;;;;;;;;;16.20;80.30;;;;;;5013382;28;88952;-46
2023/06/18 03:36:30;;;;;;;;;;;16.20;80.50;;;;;;5009932;28;88474;-49
2023/06/18 03:38:56;;;;;;;;;;;16.20;80.40;;;;;;5013956;28;87093;-50
2023/06/18 03:41:21;;;;;;;;;;;16.20;80.30;;;;;;5013960;28;88804;-46
2023/06/18 03:43:47;;;;;;;;;;;16.20;80.50;;;;;;5012383;28;87453;-51
2023/06/18 03:46:13;;;;;;;;;;;16.20;80.30;;;;;;5014272;28;87129;-52
2023/06/18 03:48:39;;;;;;;;;;;16.20;80.20;;;;;;5013690;28;87455;-53
2023/06/18 03:51:05;;;;;;;;;;;16.20;80.20;;;;;;5009807;28;90573;-51
2023/06/18 03:53:31;;;;;;;;;;;16.20;80.40;;;;;;5014839;28;87134;-51
2023/06/18 03:55:56;;;;;;;;;;;16.20;80.40;;;;;;5012617;28;88092;-48
2023/06/18 03:58:22;;;;;;;;;;;16.20;80.60;;;;;;5014585;28;87156;-49
2023/06/18 04:00:47;;;;;;;;;;;16.20;80.40;;;;;;5012093;28;87609;-49
2023/06/18 04:03:13;;;;;;;;;;;16.20;80.60;;;;;;5012193;28;89175;-50
2023/06/18 04:05:38;;;;;;;;;;;16.20;81.10;;;;;;5010054;28;87266;-52
2023/06/18 04:08:04;;;;;;;;;;;16.10;80.50;;;;;;5014672;28;87893;-51
2023/06/18 04:10:30;;;;;;;;;;;16.20;80.30;;;;;;5011877;28;88257;-51
2023/06/18 04:12:55;;;;;;;;;;;16.20;80.40;;;;;;5014850;28;87185;-48
2023/06/18 04:15:21;;;;;;;;;;;16.20;80.40;;;;;;5013415;28;88992;-51
2023/06/18 04:17:46;;;;;;;;;;;16.20;80.40;;;;;;5012662;28;87665;-52
2023/06/18 04:20:12;;;;;;;;;;;16.20;80.30;;;;;;5011936;28;87557;-50
2023/06/18 04:22:38;;;;;;;;;;;16.20;80.50;;;;;;5010814;28;87980;-50
2023/06/18 04:25:03;;;;;;;;;;;16.20;80.50;;;;;;5013385;28;87158;-49
2023/06/18 04:27:29;;;;;;;;;;;16.10;80.60;;;;;;5013761;28;87731;-49
2023/06/18 04:29:54;;;;;;;;;;;16.10;80.40;;;;;;5011036;28;88168;-48
2023/06/18 04:32:20;;;;;;;;;;;16.10;80.40;;;;;;5013647;28;86441;-47
2023/06/18 04:34:45;;;;;;;;;;;16.20;80.40;;;;;;5015973;28;87072;-51
2023/06/18 04:37:11;;;;;;;;;;;16.20;80.40;;;;;;5011071;28;87235;-48
2023/06/18 04:39:36;;;;;;;;;;;16.20;80.40;;;;;;5010570;28;88858;-47
2023/06/18 04:42:02;;;;;;;;;;;16.10;80.40;;;;;;5011983;28;88341;-50
2023/06/18 04:44:28;;;;;;;;;;;16.10;80.70;;;;;;5013873;28;87083;-47
2023/06/18 04:46:53;;;;;;;;;;;16.10;80.50;;;;;;5011318;28;87386;-48
2023/06/18 04:49:19;;;;;;;;;;;16.10;80.40;;;;;;5011913;28;87764;-50
2023/06/18 04:51:45;;;;;;;;;;;16.10;80.60;;;;;;5010806;28;87829;-48
2023/06/18 04:54:11;;;;;;;;;;;16.10;80.60;;;;;;5013655;28;87730;-51
2023/06/18 04:56:36;;;;;;;;;;;16.10;80.50;;;;;;5015408;28;88977;-48
2023/06/18 04:59:02;;;;;;;;;;;16.10;80.50;;;;;;5011044;28;87108;-51
2023/06/18 05:01:28;;;;;;;;;;;16.10;80.50;;;;;;5013445;28;88883;-49
2023/06/18 05:03:53;;;;;;;;;;;16.10;80.50;;;;;;5011362;28;88659;-48
2023/06/18 05:06:19;;;;;;;;;;;16.10;80.50;;;;;;5012266;28;88573;-48
2023/06/18 05:08:46;;;;;;;;;;;16.10;80.50;;;;;;5010223;28;89156;-53
2023/06/18 05:11:12;;;;;;;;;;;16.10;80.50;;;;;;5012265;28;87165;-49
2023/06/18 05:13:37;;;;;;;;;;;16.10;80.40;;;;;;5013136;28;88698;-49
2023/06/18 05:16:03;;;;;;;;;;;16.10;80.50;;;;;;5010447;28;88356;-49
2023/06/18 05:18:29;;;;;;;;;;;16.10;80.50;;;;;;5015372;28;87136;-51
2023/06/18 05:20:54;;;;;;;;;;;16.10;80.40;;;;;;5011968;28;87936;-47
2023/06/18 05:23:20;;;;;;;;;;;16.10;80.50;;;;;;5009742;28;87320;-49
2023/06/18 05:25:45;;;;;;;;;;;16.10;80.30;;;;;;5012519;28;87610;-49
2023/06/18 05:28:10;;;;;;;;;;;16.10;80.40;;;;;;5011632;28;88976;-46
2023/06/18 05:30:36;;;;;;;;;;;16.10;80.30;;;;;;5010323;28;87637;-50
2023/06/18 05:33:02;;;;;;;;;;;16.10;80.50;;;;;;5012832;28;87085;-49
2023/06/18 05:35:27;;;;;;;;;;;16.10;80.40;;;;;;5011947;28;87312;-52
2023/06/18 05:37:52;;;;;;;;;;;16.10;80.40;;;;;;5009750;28;87362;-48
2023/06/18 05:40:18;;;;;;;;;;;16.10;80.20;;;;;;5012858;28;87580;-48
2023/06/18 05:42:44;;;;;;;;;;;16.10;80.30;;;;;;5011679;28;87103;-52
2023/06/18 05:45:09;;;;;;;;;;;16.10;80.20;;;;;;5013600;28;87416;-50
2023/06/18 05:47:35;;;;;;;;;;;16.10;80.40;;;;;;5009774;28;89197;-49
2023/06/18 05:50:00;;;;;;;;;;;16.10;80.50;;;;;;5011332;28;87262;-47
2023/06/18 05:52:26;;;;;;;;;;;16.10;80.40;;;;;;5008145;28;88055;-49
2023/06/18 05:54:51;;;;;;;;;;;16.00;80.50;;;;;;5012667;28;88118;-52
2023/06/18 05:57:17;;;;;;;;;;;16.10;80.40;;;;;;5011372;28;87153;-49
2023/06/18 05:59:42;;;;;;;;;;;16.10;80.50;;;;;;5013438;28;87769;-47
2023/06/18 06:02:08;;;;;;;;;;;16.00;80.40;;;;;;5012946;28;87177;-47
2023/06/18 06:04:33;;;;;;;;;;;16.00;80.60;;;;;;5010861;28;87642;-47
2023/06/18 06:06:59;;;;;;;;;;;16.00;80.40;;;;;;5007122;28;88110;-47
2023/06/18 06:09:24;;;;;;;;;;;16.00;80.70;;;;;;5008905;28;86512;-50
2023/06/18 06:11:50;;;;;;;;;;;16.00;80.20;;;;;;5011909;28;87222;-51
2023/06/18 06:14:15;;;;;;;;;;;16.10;80.40;;;;;;5011256;28;89565;-51
2023/06/18 06:16:41;;;;;;;;;;;16.00;80.50;;;;;;5009570;28;88093;-50
2023/06/18 06:19:06;;;;;;;;;;;16.00;80.40;;;;;;5012254;28;88351;-52
2023/06/18 06:21:33;;;;;;;;;;;16.00;80.40;;;;;;5011262;28;88140;-49
2023/06/18 06:23:59;;;;;;;;;;;16.00;80.30;;;;;;5012403;28;89160;-48
2023/06/18 06:26:25;;;;;;;;;;;16.00;80.50;;;;;;5009666;28;89077;-50
2023/06/18 06:28:50;;;;;;;;;;;16.10;80.30;;;;;;5011108;28;87255;-49
2023/06/18 06:31:16;;;;;;;;;;;16.00;80.50;;;;;;5012785;28;88212;-50
2023/06/18 06:33:42;;;;;;;;;;;16.00;80.30;;;;;;5012669;28;87545;-51
2023/06/18 06:36:09;;;;;;;;;;;16.00;80.50;;;;;;5014681;28;87029;-50
2023/06/18 06:38:35;;;;;;;;;;;16.00;80.60;;;;;;5012351;28;87454;-47
2023/06/18 06:41:00;;;;;;;;;;;16.00;80.40;;;;;;5014252;28;89457;-52
2023/06/18 06:43:26;;;;;;;;;;;16.00;80.30;;;;;;5017270;28;87093;-49
2023/06/18 06:45:51;;;;;;;;;;;16.00;80.40;;;;;;5012886;28;88076;-49
2023/06/18 06:48:17;;;;;;;;;;;16.00;80.20;;;;;;5015747;28;87373;-49
2023/06/18 06:50:42;;;;;;;;;;;16.00;80.50;;;;;;5014256;28;87382;-48
2023/06/18 06:53:08;;;;;;;;;;;16.00;80.50;;;;;;5013409;28;87828;-52
2023/06/18 06:55:33;;;;;;;;;;;16.00;80.40;;;;;;5012649;28;87837;-49
2023/06/18 06:57:59;;;;;;;;;;;16.00;80.40;;;;;;5015060;28;86611;-49
2023/06/18 07:00:25;;;;;;;;;;;16.00;80.30;;;;;;5014596;28;87938;-49
2023/06/18 07:02:50;;;;;;;;;;;16.00;80.30;;;;;;5012901;28;87179;-50
2023/06/18 07:05:16;;;;;;;;;;;16.00;80.40;;;;;;5016394;28;88117;-50
2023/06/18 07:07:42;;;;;;;;;;;16.00;80.40;;;;;;5013085;28;87108;-54
2023/06/18 07:10:08;;;;;;;;;;;16.00;80.40;;;;;;5015078;28;88994;-52
2023/06/18 07:12:33;;;;;;;;;;;16.00;80.40;;;;;;5012755;28;89317;-49
2023/06/18 07:14:59;;;;;;;;;;;16.00;80.30;;;;;;5013190;28;86966;-51
2023/06/18 07:17:24;;;;;;;;;;;16.00;80.40;;;;;;5015416;28;87659;-49
2023/06/18 07:19:52;;;;;;;;;;;16.00;80.50;;;;;;5012442;28;89112;-51
2023/06/18 07:22:18;;;;;;;;;;;16.00;80.50;;;;;;5009313;28;86432;-50
2023/06/18 07:24:43;;;;;;;;;;;16.00;80.40;;;;;;5014223;28;87244;-51
2023/06/18 07:27:09;;;;;;;;;;;16.00;80.50;;;;;;5015519;28;88211;-48
2023/06/18 07:29:35;;;;;;;;;;;16.00;80.60;;;;;;5012517;28;88111;-52
2023/06/18 07:32:00;;;;;;;;;;;15.90;80.60;;;;;;5014656;28;88224;-53
2023/06/18 07:34:26;;;;;;;;;;;16.00;80.60;;;;;;5012615;28;87173;-48
2023/06/18 07:36:51;;;;;;;;;;;16.00;80.60;;;;;;5013631;28;87813;-52
2023/06/18 07:39:17;;;;;;;;;;;15.90;80.70;;;;;;5009785;28;89216;-51
2023/06/18 07:41:47;;;;;;;;;;;16.00;80.70;;;;;;5008415;28;87260;-52
2023/06/18 07:44:13;;;;;;;;;;;16.00;80.80;;;;;;5011548;28;89177;-52
2023/06/18 07:46:39;;;;;;;;;;;16.00;80.70;;;;;;5014625;28;88555;-53
2023/06/18 07:49:04;;;;;;;;;;;15.90;80.70;;;;;;5015072;28;87480;-55
2023/06/18 07:51:30;;;;;;;;;;;16.00;80.80;;;;;;5012682;28;88331;-53
2023/06/18 07:53:55;;;;;;;;;;;16.00;80.70;;;;;;5013594;28;87973;-49
2023/06/18 07:56:24;;;;;;;;;;;16.00;80.80;;;;;;5012438;28;88353;-49
2023/06/18 07:58:50;;;;;;;;;;;15.90;80.90;;;;;;5012376;28;87084;-51
2023/06/18 08:01:15;;;;;;;;;;;16.00;80.80;;;;;;5014258;28;87183;-47
2023/06/18 08:03:41;;;;;;;;;;;16.00;80.90;;;;;;5012376;28;86993;-51
2023/06/18 08:06:06;;;;;;;;;;;16.00;80.80;;;;;;5012391;28;87988;-50
2023/06/18 08:08:32;;;;;;;;;;;16.00;80.80;;;;;;5013158;28;87430;-49
2023/06/18 08:10:57;;;;;;;;;;;16.00;80.80;;;;;;5013974;28;88940;-47
2023/06/18 08:13:23;;;;;;;;;;;16.00;80.90;;;;;;5013379;28;87037;-53
2023/06/18 08:15:49;;;;;;;;;;;16.00;80.80;;;;;;5011714;28;87518;-49
2023/06/18 08:18:14;;;;;;;;;;;16.00;80.80;;;;;;5006723;28;90403;-48
2023/06/18 08:20:40;;;;;;;;;;;16.00;80.90;;;;;;5013103;28;87154;-50
2023/06/18 08:23:05;;;;;;;;;;;16.00;80.90;;;;;;5013432;28;87070;-48
2023/06/18 08:25:31;;;;;;;;;;;16.00;80.80;;;;;;5010683;28;88217;-48
2023/06/18 08:27:58;;;;;;;;;;;16.00;80.80;;;;;;5012783;28;87170;-49
2023/06/18 08:30:24;;;;;;;;;;;16.00;81.10;;;;;;5016078;28;88814;-51
2023/06/18 08:32:50;;;;;;;;;;;16.00;81.10;;;;;;5011479;28;87222;-50
2023/06/18 08:35:15;;;;;;;;;;;16.00;81.20;;;;;;5013518;28;87501;-48
2023/06/18 08:37:41;;;;;;;;;;;16.00;81.30;;;;;;5010415;28;88160;-50
2023/06/18 08:40:07;;;;;;;;;;;16.00;81.50;;;;;;5013632;28;87199;-50
2023/06/18 08:42:32;;;;;;;;;;;16.00;81.10;;;;;;5011448;28;88300;-47
2023/06/18 08:44:58;;;;;;;;;;;16.00;81.30;;;;;;5011403;28;87896;-48
2023/06/18 08:47:27;;;;;;;;;;;16.00;81.40;;;;;;5013674;28;87208;-49
2023/06/18 08:49:53;;;;;;;;;;;15.90;81.20;;;;;;5012360;28;87289;-49
2023/06/18 08:52:20;;;;;;;;;;;16.00;81.20;;;;;;5013755;28;87947;-47
2023/06/18 08:54:49;;;;;;;;;;;16.00;81.20;;;;;;5008407;28;88513;-49
2023/06/18 08:57:24;;;;;;;;;;;16.00;81.40;;;;;;5011309;28;88197;-50
2023/06/18 08:59:50;;;;;;;;;;;16.00;81.40;;;;;;5008638;28;86409;-47
2023/06/18 09:02:18;;;;;;;;;;;16.00;81.40;;;;;;5012056;28;87161;-49
2023/06/18 09:04:44;;;;;;;;;;;16.00;81.20;;;;;;5013088;28;87315;-48
2023/06/18 09:07:11;;;;;;;;;;;16.00;81.50;;;;;;5010580;28;88115;-50
2023/06/18 09:09:36;;;;;;;;;;;16.00;81.30;;;;;;5010703;28;87911;-49
2023/06/18 09:12:02;;;;;;;;;;;16.00;81.30;;;;;;5013071;28;88010;-49
2023/06/18 09:14:28;;;;;;;;;;;16.00;81.90;;;;;;5014218;28;87063;-49
2023/06/18 09:16:54;;;;;;;;;;;16.00;81.40;;;;;;5011294;28;87938;-49
2023/06/18 09:19:20;;;;;;;;;;;16.00;81.30;;;;;;5013175;28;87026;-49
2023/06/18 09:21:46;;;;;;;;;;;16.00;82.10;;;;;;5011370;28;87492;-50
2023/06/18 09:24:19;;;;;;;;;;;16.00;81.50;;;;;;5009753;28;87434;-47
2023/06/18 09:26:44;;;;;;;;;;;16.10;81.40;;;;;;5007639;28;87504;-49
2023/06/18 09:29:10;;;;;;;;;;;16.00;81.30;;;;;;5011745;28;87463;-47
2023/06/18 09:31:37;;;;;;;;;;;16.10;81.50;;;;;;5012270;28;89030;-50
2023/06/18 09:34:10;;;;;;;;;;;16.10;81.40;;;;;;5010726;28;88271;-49
2023/06/18 09:36:36;;;;;;;;;;;16.10;81.40;;;;;;5013307;28;87009;-49
2023/06/18 09:39:01;;;;;;;;;;;16.10;81.30;;;;;;5012929;28;87174;-49
2023/06/18 09:41:27;;;;;;;;;;;16.10;81.30;;;;;;5011172;28;88838;-49
2023/06/18 09:43:54;;;;;;;;;;;16.10;81.30;;;;;;5010546;28;87961;-47
2023/06/18 09:46:25;;;;;;;;;;;16.10;81.20;;;;;;5012739;28;87199;-47
2023/06/18 09:48:50;;;;;;;;;;;16.10;81.20;;;;;;5012063;28;89244;-48
2023/06/18 09:51:16;;;;;;;;;;;16.10;81.40;;;;;;5010004;28;87959;-49
2023/06/18 09:53:42;;;;;;;;;;;16.20;81.30;;;;;;5010029;28;87117;-48
2023/06/18 09:56:13;;;;;;;;;;;16.20;81.30;;;;;;5010800;28;88054;-48
2023/06/18 09:58:40;;;;;;;;;;;16.20;81.40;;;;;;5015350;28;88721;-48
2023/06/18 10:01:06;;;;;;;;;;;16.10;81.90;;;;;;5011499;28;87246;-49
2023/06/18 10:03:31;;;;;;;;;;;16.20;81.40;;;;;;5010049;28;87950;-49
2023/06/18 10:06:01;;;;;;;;;;;16.20;81.20;;;;;;5012937;28;86944;-47
2023/06/18 10:08:28;;;;;;;;;;;16.20;81.40;;;;;;5011699;28;87635;-49
2023/06/18 10:10:53;;;;;;;;;;;16.20;81.40;;;;;;5015696;28;88604;-47
2023/06/18 10:13:19;;;;;;;;;;;16.20;81.40;;;;;;5014355;28;86319;-48
2023/06/18 10:15:45;;;;;;;;;;;16.20;81.40;;;;;;5014665;28;87133;-50
2023/06/18 10:18:13;;;;;;;;;;;16.20;81.10;;;;;;5018828;28;88277;-46
2023/06/18 10:20:40;;;;;;;;;;;16.20;81.50;;;;;;5011958;28;89474;-49
2023/06/18 10:23:09;;;;;;;;;;;16.20;81.40;;;;;;5013804;28;88076;-48
2023/06/18 10:25:35;;;;;;;;;;;16.20;81.30;;;;;;5012473;28;87344;-47
2023/06/18 10:28:01;;;;;;;;;;;16.20;81.20;;;;;;5014969;28;87172;-48
2023/06/18 10:30:27;;;;;;;;;;;16.20;81.40;;;;;;5015479;28;88016;-48
2023/06/18 10:32:53;;;;;;;;;;;16.20;81.40;;;;;;5012908;28;87478;-48
2023/06/18 10:35:19;;;;;;;;;;;16.20;81.20;;;;;;5014887;28;87342;-50
2023/06/18 10:37:45;;;;;;;;;;;16.20;81.60;;;;;;5015874;28;87739;-48
2023/06/18 10:40:11;;;;;;;;;;;16.20;81.40;;;;;;5015911;28;87737;-51
2023/06/18 10:42:37;;;;;;;;;;;16.20;81.30;;;;;;5013457;28;90282;-52
2023/06/18 10:45:09;;;;;;;;;;;16.30;81.30;;;;;;5012817;28;88007;-47
2023/06/18 10:47:35;;;;;;;;;;;16.20;81.60;;;;;;5010046;28;89951;-47
2023/06/18 10:50:00;;;;;;;;;;;16.20;81.30;;;;;;5013185;28;89414;-48
2023/06/18 10:52:26;;;;;;;;;;;16.20;81.30;;;;;;5015676;28;87147;-50
2023/06/18 10:54:54;;;;;;;;;;;16.20;81.50;;;;;;5012578;28;88590;-49
2023/06/18 10:57:24;;;;;;;;;;;16.30;81.70;;;;;;5013216;28;88798;-50
2023/06/18 10:59:50;;;;;;;;;;;16.30;81.20;;;;;;5008936;28;87394;-49
2023/06/18 11:02:28;;;;;;;;;;;16.30;81.40;;;;;;5016957;28;88910;-50
2023/06/18 11:04:54;;;;;;;;;;;16.30;81.30;;;;;;5009770;28;87123;-48
2023/06/18 11:07:23;;;;;;;;;;;16.30;81.50;;;;;;5013671;28;88777;-52
2023/06/18 11:09:53;;;;;;;;;;;16.30;81.40;;;;;;5012176;28;90345;-49
2023/06/18 11:12:23;;;;;;;;;;;16.40;81.30;;;;;;5013963;28;87127;-48
2023/06/18 11:15:07;;;;;;;;;;;16.40;81.20;;;;;;5012364;28;87810;-49
2023/06/18 11:17:33;;;;;;;;;;;16.30;81.10;;;;;;5012475;28;87131;-49
2023/06/18 11:19:59;;;;;;;;;;;16.20;81.80;;;;;;5014517;28;87206;-48
2023/06/18 11:22:26;;;;;;;;;;;16.20;81.90;;;;;;5014421;28;87386;-46
2023/06/18 11:24:51;;;;;;;;;;;16.20;81.80;;;;;;5013491;28;88486;-48
2023/06/18 11:27:18;;;;;;;;;;;16.20;82.20;;;;;;5013414;28;87390;-47
2023/06/18 11:29:44;;;;;;;;;;;16.10;82.20;;;;;;5012781;28;87969;-47
2023/06/18 11:32:13;;;;;;;;;;;16.10;82.30;;;;;;5015061;28;88026;-46
2023/06/18 11:34:42;;;;;;;;;;;16.20;82.40;;;;;;5012560;28;88805;-46
2023/06/18 11:37:09;;;;;;;;;;;16.20;82.20;;;;;;5012112;28;88033;-47
2023/06/18 11:39:35;;;;;;;;;;;16.20;82.00;;;;;;5008447;28;87113;-52
2023/06/18 11:42:11;;;;;;;;;;;16.20;82.10;;;;;;5013583;28;87519;-52
2023/06/18 11:44:44;;;;;;;;;;;16.30;82.30;;;;;;5008380;28;89377;-48
2023/06/18 11:47:10;;;;;;;;;;;16.20;82.40;;;;;;5015364;28;87058;-47
2023/06/18 11:49:36;;;;;;;;;;;16.20;82.50;;;;;;5007976;28;88020;-50
2023/06/18 11:52:02;;;;;;;;;;;16.20;82.90;;;;;;5013749;28;86440;-47
2023/06/18 11:54:28;;;;;;;;;;;16.10;83.30;;;;;;5010670;28;87089;-47
2023/06/18 11:56:55;;;;;;;;;;;16.10;83.60;;;;;;5014310;28;87800;-46
2023/06/18 11:59:21;;;;;;;;;;;16.10;83.30;;;;;;5012656;28;87957;-48
2023/06/18 12:01:46;;;;;;;;;;;16.10;83.30;;;;;;5011876;28;89688;-48
2023/06/18 12:04:12;;;;;;;;;;;16.10;83.40;;;;;;5014189;28;87912;-49
2023/06/18 12:06:37;;;;;;;;;;;16.00;83.80;;;;;;5011479;28;87100;-50
2023/06/18 12:09:07;;;;;;;;;;;16.10;83.80;;;;;;5014624;28;87410;-50
2023/06/18 12:11:41;;;;;;;;;;;16.10;83.90;;;;;;5010650;28;87768;-51
2023/06/18 12:14:10;;;;;;;;;;;16.10;83.70;;;;;;5011850;28;87511;-48
2023/06/18 12:16:39;;;;;;;;;;;16.10;84.00;;;;;;5009133;28;88512;-52
2023/06/18 12:19:05;;;;;;;;;;;16.10;84.10;;;;;;5012047;28;87119;-48
2023/06/18 12:21:31;;;;;;;;;;;16.10;84.10;;;;;;5014120;28;87788;-49
2023/06/18 12:23:57;;;;;;;;;;;16.10;84.20;;;;;;5011186;28;90032;-46
2023/06/18 12:26:23;;;;;;;;;;;16.10;84.20;;;;;;5011258;28;87153;-46
2023/06/18 12:28:49;;;;;;;;;;;16.10;84.30;;;;;;5016518;28;87698;-46
2023/06/18 12:31:15;;;;;;;;;;;16.10;84.60;;;;;;5011401;28;87102;-46
2023/06/18 12:33:42;;;;;;;;;;;16.10;84.50;;;;;;5011929;28;87424;-47
2023/06/18 12:36:08;;;;;;;;;;;16.10;84.50;;;;;;5013313;28;89449;-53
2023/06/18 12:38:39;;;;;;;;;;;16.10;84.60;;;;;;5012306;28;87152;-48
2023/06/18 12:41:05;;;;;;;;;;;16.10;84.60;;;;;;5012336;28;87297;-49
2023/06/18 12:43:37;;;;;;;;;;;16.10;84.60;;;;;;5009553;28;91234;-47
2023/06/18 12:46:03;;;;;;;;;;;16.10;84.60;;;;;;5011519;28;87090;-46
2023/06/18 12:48:29;;;;;;;;;;;16.20;84.70;;;;;;5012759;28;88110;-48
2023/06/18 12:50:55;;;;;;;;;;;16.20;84.70;;;;;;5014703;28;89414;-47
2023/06/18 12:53:22;;;;;;;;;;;16.20;84.60;;;;;;5011382;28;87157;-49
2023/06/18 12:55:48;;;;;;;;;;;16.20;84.60;;;;;;5011177;28;88687;-47
2023/06/18 12:58:18;;;;;;;;;;;16.20;84.70;;;;;;5012018;28;87112;-53
2023/06/18 13:00:44;;;;;;;;;;;16.20;84.70;;;;;;5007170;28;88144;-48
2023/06/18 13:03:10;;;;;;;;;;;16.20;84.70;;;;;;5011321;28;87778;-48
2023/06/18 13:05:36;;;;;;;;;;;16.20;84.80;;;;;;5010600;28;86700;-49
2023/06/18 13:08:01;;;;;;;;;;;16.20;84.90;;;;;;5013787;28;87041;-48
2023/06/18 13:10:27;;;;;;;;;;;16.20;84.90;;;;;;5009307;28;87187;-50
2023/06/18 13:12:52;;;;;;;;;;;16.20;85.10;;;;;;5014120;28;88042;-48
2023/06/18 13:15:18;;;;;;;;;;;16.20;84.90;;;;;;5013017;28;87946;-49
2023/06/18 13:17:43;;;;;;;;;;;16.20;85.00;;;;;;5010701;28;87158;-48
2023/06/18 13:20:09;;;;;;;;;;;16.20;84.90;;;;;;5011186;28;87593;-51
2023/06/18 13:22:35;;;;;;;;;;;16.20;85.10;;;;;;5012005;28;87945;-50
2023/06/18 13:25:01;;;;;;;;;;;16.30;85.10;;;;;;5005048;28;87500;-51
2023/06/18 13:27:26;;;;;;;;;;;16.20;85.00;;;;;;5011867;28;87075;-52
2023/06/18 13:29:55;;;;;;;;;;;16.30;85.10;;;;;;5010857;28;87241;-50
2023/06/18 13:32:21;;;;;;;;;;;16.30;85.20;;;;;;5007113;28;87201;-47
2023/06/18 13:34:47;;;;;;;;;;;16.30;85.10;;;;;;5014188;28;87143;-48
2023/06/18 13:37:13;;;;;;;;;;;16.30;85.10;;;;;;5011923;28;87994;-49
2023/06/18 13:39:39;;;;;;;;;;;16.40;85.40;;;;;;5010158;28;87431;-51
2023/06/18 13:42:04;;;;;;;;;;;16.30;85.30;;;;;;5010970;28;89354;-48
2023/06/18 13:44:30;;;;;;;;;;;16.30;85.30;;;;;;5015198;28;87091;-51
2023/06/18 13:46:55;;;;;;;;;;;16.40;85.40;;;;;;5010240;28;87134;-50
2023/06/18 13:49:21;;;;;;;;;;;16.40;85.30;;;;;;5014914;28;88107;-47
2023/06/18 13:51:47;;;;;;;;;;;16.40;85.30;;;;;;5016333;28;87204;-49
2023/06/18 13:54:12;;;;;;;;;;;16.40;85.30;;;;;;5014186;28;87747;-48
2023/06/18 13:56:38;;;;;;;;;;;16.40;85.30;;;;;;5016349;28;87453;-52
2023/06/18 13:59:03;;;;;;;;;;;16.50;85.30;;;;;;5014407;28;87537;-50
2023/06/18 14:01:28;;;;;;;;;;;16.50;85.50;;;;;;5015405;28;89138;-48
2023/06/18 14:03:55;;;;;;;;;;;16.50;85.60;;;;;;5014534;28;87114;-51
2023/06/18 14:06:20;;;;;;;;;;;16.50;85.60;;;;;;5014006;28;89106;-49
2023/06/18 14:08:46;;;;;;;;;;;16.60;85.60;;;;;;5015940;28;88209;-54
2023/06/18 14:11:11;;;;;;;;;;;16.60;85.60;;;;;;5012900;28;87143;-47